100LL.CA
Aviation Fuel Pricing for Canadians
Please upgrade your browser - Tested with IE9, FireFox, Chrome, Safari

Fuel Airports Other Help
Prices Economy Info List METAR/TAF Kneeboard Help

Reference Airport: NORMAN WELLS, NT
N 65 16 53  W 126 47 55
Provinces to show:

CYVQ NORMAN WELLS, NT
WEATHER
METARCYVQ 230300Z 25005KT 30SM OVC075 M06/M08 A2939 RMK AC8 SLP961
TAFTAF CYVQ 222340Z 2300/2312 10005KT P6SM BKN120 TEMPO 2300/2306 BKN080 FM230600 29015G25KT 6SM -SN SCT020 OVC050 TEMPO 2306/2308 1SM -SN BLSN OVC015 FM230800 29020G30KT 1/2SM SN BLSN OVC008 TEMPO 2308/2312 2SM -SN BLSN OVC015 RMK NXT FCST BY 230600Z
OTHER SITES

FlightAware

FltPlan

Google Maps

SkyVector
FUEL
FBO 100LL
member
100LL
public
JETA MOGAS
SRP Petroleum (2022-08-26)2.8402.520
Canada Flight Supplement - CYVQ
(opens in new tab/window)


Please Send Updates!

Desktop Version ]  [ Mobile Version ]  [ Disclaimer ]